Open Full Screen Window  High Contrast Mode
Wind Gusting 00 knots
03
October 23, 2014 1:50 AM EDT
Weather Information
Wind Direction
  320 °
Wind Speed
  03 kt (3 mph)
Wind Gust
  00 kt (0 mph)
Altimeter
30.25 in
Visibility
10 SM
Temperature
08° C
46° F
Dewpoint
05° C
41° F
Humidity
82%
1hr Rain Fall
00.00 in.
24hr Rain Fall
00.00 in.
Sky Condition
Overcast @ 2,900 ft
MVFR

METAR KI69 230550Z AUTO 32003KT 10SM OVC029 08/05 A3025 RMK AO1

*Background is not an actual portrayal of the airport.